sensor_id;sensor_type;location;lat;lon;timestamp;P1;durP1;ratioP1;P2;durP2;ratioP2
21729;SDS011;11027;51.030;13.812;2022-07-25T00:00:26;53.05;;;38.58;;
21729;SDS011;11027;51.030;13.812;2022-07-25T00:02:51;58.28;;;40.47;;
21729;SDS011;11027;51.030;13.812;2022-07-25T00:05:16;70.75;;;48.05;;
21729;SDS011;11027;51.030;13.812;2022-07-25T00:07:42;66.00;;;47.28;;
21729;SDS011;11027;51.030;13.812;2022-07-25T00:10:07;67.95;;;47.88;;
21729;SDS011;11027;51.030;13.812;2022-07-25T00:12:33;69.68;;;50.28;;
21729;SDS011;11027;51.030;13.812;2022-07-25T00:14:58;69.28;;;50.20;;
21729;SDS011;11027;51.030;13.812;2022-07-25T00:17:23;75.25;;;52.70;;
21729;SDS011;11027;51.030;13.812;2022-07-25T00:19:49;68.82;;;50.63;;
21729;SDS011;11027;51.030;13.812;2022-07-25T00:22:14;71.00;;;51.80;;
21729;SDS011;11027;51.030;13.812;2022-07-25T00:24:39;75.25;;;53.28;;
21729;SDS011;11027;51.030;13.812;2022-07-25T00:27:04;73.20;;;51.70;;
21729;SDS011;11027;51.030;13.812;2022-07-25T00:29:30;74.28;;;52.80;;
21729;SDS011;11027;51.030;13.812;2022-07-25T00:31:55;70.85;;;52.72;;
21729;SDS011;11027;51.030;13.812;2022-07-25T00:34:20;73.00;;;51.83;;
21729;SDS011;11027;51.030;13.812;2022-07-25T00:36:45;72.25;;;52.75;;
21729;SDS011;11027;51.030;13.812;2022-07-25T00:39:11;71.95;;;52.45;;
21729;SDS011;11027;51.030;13.812;2022-07-25T00:41:36;69.20;;;51.05;;
21729;SDS011;11027;51.030;13.812;2022-07-25T00:44:01;73.70;;;53.17;;
21729;SDS011;11027;51.030;13.812;2022-07-25T00:46:27;74.50;;;52.03;;
21729;SDS011;11027;51.030;13.812;2022-07-25T00:48:52;70.35;;;52.78;;
21729;SDS011;11027;51.030;13.812;2022-07-25T00:51:17;71.22;;;52.88;;
21729;SDS011;11027;51.030;13.812;2022-07-25T00:53:42;74.40;;;52.30;;
21729;SDS011;11027;51.030;13.812;2022-07-25T00:56:08;71.15;;;51.95;;
21729;SDS011;11027;51.030;13.812;2022-07-25T00:58:34;76.25;;;54.00;;
21729;SDS011;11027;51.030;13.812;2022-07-25T01:01:00;73.40;;;53.83;;
21729;SDS011;11027;51.030;13.812;2022-07-25T01:03:26;75.03;;;54.63;;
21729;SDS011;11027;51.030;13.812;2022-07-25T01:05:51;74.07;;;53.85;;
21729;SDS011;11027;51.030;13.812;2022-07-25T01:08:17;73.10;;;53.53;;
21729;SDS011;11027;51.030;13.812;2022-07-25T01:10:44;73.88;;;51.58;;
21729;SDS011;11027;51.030;13.812;2022-07-25T01:13:10;71.03;;;52.03;;
21729;SDS011;11027;51.030;13.812;2022-07-25T01:15:36;75.47;;;54.05;;
21729;SDS011;11027;51.030;13.812;2022-07-25T01:18:01;78.18;;;54.03;;
21729;SDS011;11027;51.030;13.812;2022-07-25T01:20:27;74.63;;;54.05;;
21729;SDS011;11027;51.030;13.812;2022-07-25T01:22:53;77.40;;;54.47;;
21729;SDS011;11027;51.030;13.812;2022-07-25T01:25:19;73.45;;;53.85;;
21729;SDS011;11027;51.030;13.812;2022-07-25T01:27:45;79.47;;;53.22;;
21729;SDS011;11027;51.030;13.812;2022-07-25T01:30:12;71.03;;;53.90;;
21729;SDS011;11027;51.030;13.812;2022-07-25T01:32:39;73.15;;;53.65;;
21729;SDS011;11027;51.030;13.812;2022-07-25T01:35:05;69.38;;;51.83;;
21729;SDS011;11027;51.030;13.812;2022-07-25T01:37:31;77.28;;;54.13;;
21729;SDS011;11027;51.030;13.812;2022-07-25T01:39:56;73.32;;;52.38;;
21729;SDS011;11027;51.030;13.812;2022-07-25T01:42:22;73.50;;;51.13;;
21729;SDS011;11027;51.030;13.812;2022-07-25T01:44:47;74.32;;;53.38;;
21729;SDS011;11027;51.030;13.812;2022-07-25T01:47:13;72.95;;;51.33;;
21729;SDS011;11027;51.030;13.812;2022-07-25T01:49:38;72.90;;;50.65;;
21729;SDS011;11027;51.030;13.812;2022-07-25T01:52:04;68.07;;;49.92;;
21729;SDS011;11027;51.030;13.812;2022-07-25T01:54:29;76.93;;;52.33;;
21729;SDS011;11027;51.030;13.812;2022-07-25T01:56:56;75.15;;;50.80;;
21729;SDS011;11027;51.030;13.812;2022-07-25T01:59:21;69.57;;;50.65;;
21729;SDS011;11027;51.030;13.812;2022-07-25T02:01:46;71.45;;;50.28;;
21729;SDS011;11027;51.030;13.812;2022-07-25T02:04:12;73.70;;;49.15;;
21729;SDS011;11027;51.030;13.812;2022-07-25T02:06:37;69.30;;;48.55;;
21729;SDS011;11027;51.030;13.812;2022-07-25T02:09:05;64.43;;;48.20;;
21729;SDS011;11027;51.030;13.812;2022-07-25T02:11:31;64.88;;;46.10;;
21729;SDS011;11027;51.030;13.812;2022-07-25T02:13:57;68.68;;;46.33;;
21729;SDS011;11027;51.030;13.812;2022-07-25T02:16:22;63.00;;;45.60;;
21729;SDS011;11027;51.030;13.812;2022-07-25T02:18:47;69.30;;;46.88;;
21729;SDS011;11027;51.030;13.812;2022-07-25T02:21:12;64.60;;;45.60;;
21729;SDS011;11027;51.030;13.812;2022-07-25T02:23:38;62.00;;;44.33;;
21729;SDS011;11027;51.030;13.812;2022-07-25T02:26:04;62.13;;;44.15;;
21729;SDS011;11027;51.030;13.812;2022-07-25T02:28:29;62.83;;;44.80;;
21729;SDS011;11027;51.030;13.812;2022-07-25T02:30:55;61.05;;;43.15;;
21729;SDS011;11027;51.030;13.812;2022-07-25T02:33:20;59.78;;;42.88;;
21729;SDS011;11027;51.030;13.812;2022-07-25T02:35:45;58.65;;;41.08;;
21729;SDS011;11027;51.030;13.812;2022-07-25T02:38:11;52.55;;;39.40;;
21729;SDS011;11027;51.030;13.812;2022-07-25T02:40:43;53.22;;;39.13;;
21729;SDS011;11027;51.030;13.812;2022-07-25T02:43:12;55.70;;;38.55;;
21729;SDS011;11027;51.030;13.812;2022-07-25T02:45:37;58.60;;;37.17;;
21729;SDS011;11027;51.030;13.812;2022-07-25T02:48:02;50.22;;;35.88;;
21729;SDS011;11027;51.030;13.812;2022-07-25T02:50:28;51.78;;;36.05;;
21729;SDS011;11027;51.030;13.812;2022-07-25T02:52:54;48.30;;;34.65;;
21729;SDS011;11027;51.030;13.812;2022-07-25T02:55:19;46.58;;;33.17;;
21729;SDS011;11027;51.030;13.812;2022-07-25T02:57:45;47.50;;;33.33;;
21729;SDS011;11027;51.030;13.812;2022-07-25T03:00:10;45.45;;;31.98;;
21729;SDS011;11027;51.030;13.812;2022-07-25T03:02:36;49.58;;;32.15;;
21729;SDS011;11027;51.030;13.812;2022-07-25T03:05:04;50.35;;;32.92;;
21729;SDS011;11027;51.030;13.812;2022-07-25T03:07:30;45.85;;;32.90;;
21729;SDS011;11027;51.030;13.812;2022-07-25T03:09:55;47.40;;;32.85;;
21729;SDS011;11027;51.030;13.812;2022-07-25T03:12:21;48.75;;;33.42;;
21729;SDS011;11027;51.030;13.812;2022-07-25T03:14:46;46.10;;;32.67;;
21729;SDS011;11027;51.030;13.812;2022-07-25T03:17:12;45.03;;;31.27;;
21729;SDS011;11027;51.030;13.812;2022-07-25T03:19:37;47.83;;;31.88;;
21729;SDS011;11027;51.030;13.812;2022-07-25T03:22:02;40.88;;;28.70;;
21729;SDS011;11027;51.030;13.812;2022-07-25T03:24:27;43.20;;;30.13;;
21729;SDS011;11027;51.030;13.812;2022-07-25T03:26:53;43.85;;;29.83;;
21729;SDS011;11027;51.030;13.812;2022-07-25T03:29:19;42.83;;;28.92;;
21729;SDS011;11027;51.030;13.812;2022-07-25T03:31:44;41.47;;;28.20;;
21729;SDS011;11027;51.030;13.812;2022-07-25T03:34:09;41.83;;;27.80;;
21729;SDS011;11027;51.030;13.812;2022-07-25T03:36:35;39.85;;;27.02;;
21729;SDS011;11027;51.030;13.812;2022-07-25T03:39:00;39.22;;;26.80;;
21729;SDS011;11027;51.030;13.812;2022-07-25T03:41:25;36.33;;;25.35;;
21729;SDS011;11027;51.030;13.812;2022-07-25T03:43:51;39.92;;;25.35;;
21729;SDS011;11027;51.030;13.812;2022-07-25T03:46:16;35.55;;;23.20;;
21729;SDS011;11027;51.030;13.812;2022-07-25T03:48:41;33.05;;;23.90;;
21729;SDS011;11027;51.030;13.812;2022-07-25T03:51:06;32.28;;;23.67;;
21729;SDS011;11027;51.030;13.812;2022-07-25T03:53:32;35.72;;;22.77;;
21729;SDS011;11027;51.030;13.812;2022-07-25T03:56:17;31.95;;;20.98;;
21729;SDS011;11027;51.030;13.812;2022-07-25T03:58:43;30.48;;;21.77;;
21729;SDS011;11027;51.030;13.812;2022-07-25T04:01:08;32.30;;;21.15;;
21729;SDS011;11027;51.030;13.812;2022-07-25T04:03:33;27.15;;;19.60;;
21729;SDS011;11027;51.030;13.812;2022-07-25T04:05:58;32.63;;;20.83;;
21729;SDS011;11027;51.030;13.812;2022-07-25T04:08:24;29.77;;;19.75;;
21729;SDS011;11027;51.030;13.812;2022-07-25T04:10:49;31.15;;;20.23;;
21729;SDS011;11027;51.030;13.812;2022-07-25T04:13:14;27.83;;;19.95;;
21729;SDS011;11027;51.030;13.812;2022-07-25T04:15:39;29.40;;;21.02;;
21729;SDS011;11027;51.030;13.812;2022-07-25T04:18:05;30.10;;;20.38;;
21729;SDS011;11027;51.030;13.812;2022-07-25T04:20:30;30.30;;;21.58;;
21729;SDS011;11027;51.030;13.812;2022-07-25T04:22:55;31.60;;;20.65;;
21729;SDS011;11027;51.030;13.812;2022-07-25T04:25:21;34.42;;;22.98;;
21729;SDS011;11027;51.030;13.812;2022-07-25T04:27:46;32.28;;;22.27;;
21729;SDS011;11027;51.030;13.812;2022-07-25T04:30:11;31.58;;;21.17;;
21729;SDS011;11027;51.030;13.812;2022-07-25T04:32:37;32.50;;;22.13;;
21729;SDS011;11027;51.030;13.812;2022-07-25T04:35:02;33.47;;;20.88;;
21729;SDS011;11027;51.030;13.812;2022-07-25T04:37:27;34.80;;;22.40;;
21729;SDS011;11027;51.030;13.812;2022-07-25T04:39:53;33.97;;;20.63;;
21729;SDS011;11027;51.030;13.812;2022-07-25T04:42:18;32.28;;;21.02;;
21729;SDS011;11027;51.030;13.812;2022-07-25T04:44:43;28.05;;;19.70;;
21729;SDS011;11027;51.030;13.812;2022-07-25T04:47:08;26.95;;;18.85;;
21729;SDS011;11027;51.030;13.812;2022-07-25T04:49:34;26.88;;;17.90;;
21729;SDS011;11027;51.030;13.812;2022-07-25T04:51:59;24.73;;;17.10;;
21729;SDS011;11027;51.030;13.812;2022-07-25T04:54:24;25.65;;;15.88;;
21729;SDS011;11027;51.030;13.812;2022-07-25T04:56:49;22.20;;;15.35;;
21729;SDS011;11027;51.030;13.812;2022-07-25T04:59:15;21.15;;;14.88;;
21729;SDS011;11027;51.030;13.812;2022-07-25T05:01:40;22.48;;;14.63;;
21729;SDS011;11027;51.030;13.812;2022-07-25T05:04:05;25.45;;;14.77;;
21729;SDS011;11027;51.030;13.812;2022-07-25T05:06:30;19.08;;;14.20;;
21729;SDS011;11027;51.030;13.812;2022-07-25T05:08:57;21.48;;;13.85;;
21729;SDS011;11027;51.030;13.812;2022-07-25T05:11:22;19.60;;;14.10;;
21729;SDS011;11027;51.030;13.812;2022-07-25T05:13:48;19.77;;;13.95;;
21729;SDS011;11027;51.030;13.812;2022-07-25T05:16:13;22.70;;;13.98;;
21729;SDS011;11027;51.030;13.812;2022-07-25T05:18:38;23.30;;;14.43;;
21729;SDS011;11027;51.030;13.812;2022-07-25T05:21:03;24.60;;;14.82;;
21729;SDS011;11027;51.030;13.812;2022-07-25T05:23:29;21.90;;;15.25;;
21729;SDS011;11027;51.030;13.812;2022-07-25T05:25:54;23.10;;;14.95;;
21729;SDS011;11027;51.030;13.812;2022-07-25T05:28:19;18.45;;;14.45;;
21729;SDS011;11027;51.030;13.812;2022-07-25T05:30:44;22.15;;;15.45;;
21729;SDS011;11027;51.030;13.812;2022-07-25T05:33:10;20.02;;;15.13;;
21729;SDS011;11027;51.030;13.812;2022-07-25T05:35:35;22.23;;;15.50;;
21729;SDS011;11027;51.030;13.812;2022-07-25T05:38:00;22.75;;;14.63;;
21729;SDS011;11027;51.030;13.812;2022-07-25T05:40:25;25.00;;;14.98;;
21729;SDS011;11027;51.030;13.812;2022-07-25T05:42:51;23.05;;;15.77;;
21729;SDS011;11027;51.030;13.812;2022-07-25T05:45:16;21.27;;;14.93;;
21729;SDS011;11027;51.030;13.812;2022-07-25T05:47:41;20.83;;;15.20;;
21729;SDS011;11027;51.030;13.812;2022-07-25T05:50:07;24.08;;;14.88;;
21729;SDS011;11027;51.030;13.812;2022-07-25T05:52:32;20.67;;;15.23;;
21729;SDS011;11027;51.030;13.812;2022-07-25T05:54:57;21.45;;;15.02;;
21729;SDS011;11027;51.030;13.812;2022-07-25T05:57:23;21.15;;;14.90;;
21729;SDS011;11027;51.030;13.812;2022-07-25T05:59:48;20.58;;;14.40;;
21729;SDS011;11027;51.030;13.812;2022-07-25T06:02:13;20.88;;;13.82;;
21729;SDS011;11027;51.030;13.812;2022-07-25T06:04:38;19.90;;;14.93;;
21729;SDS011;11027;51.030;13.812;2022-07-25T06:07:04;21.95;;;15.35;;
21729;SDS011;11027;51.030;13.812;2022-07-25T06:09:29;20.17;;;15.02;;
21729;SDS011;11027;51.030;13.812;2022-07-25T06:11:55;20.90;;;15.23;;
21729;SDS011;11027;51.030;13.812;2022-07-25T06:14:21;19.48;;;15.30;;
21729;SDS011;11027;51.030;13.812;2022-07-25T06:16:46;19.50;;;15.02;;
21729;SDS011;11027;51.030;13.812;2022-07-25T06:19:11;20.67;;;14.55;;
21729;SDS011;11027;51.030;13.812;2022-07-25T06:21:36;20.73;;;14.52;;
21729;SDS011;11027;51.030;13.812;2022-07-25T06:24:02;23.45;;;15.60;;
21729;SDS011;11027;51.030;13.812;2022-07-25T06:26:28;22.20;;;15.43;;
21729;SDS011;11027;51.030;13.812;2022-07-25T06:28:53;21.17;;;15.07;;
21729;SDS011;11027;51.030;13.812;2022-07-25T06:31:18;21.48;;;15.27;;
21729;SDS011;11027;51.030;13.812;2022-07-25T06:33:44;27.70;;;14.75;;
21729;SDS011;11027;51.030;13.812;2022-07-25T06:36:09;23.83;;;14.13;;
21729;SDS011;11027;51.030;13.812;2022-07-25T06:38:35;23.45;;;14.30;;
21729;SDS011;11027;51.030;13.812;2022-07-25T06:41:00;22.23;;;13.55;;
21729;SDS011;11027;51.030;13.812;2022-07-25T06:43:25;18.70;;;13.27;;
21729;SDS011;11027;51.030;13.812;2022-07-25T06:45:50;19.88;;;13.05;;
21729;SDS011;11027;51.030;13.812;2022-07-25T06:48:16;19.50;;;12.50;;
21729;SDS011;11027;51.030;13.812;2022-07-25T06:50:42;15.75;;;11.55;;
21729;SDS011;11027;51.030;13.812;2022-07-25T06:53:07;25.80;;;11.77;;
21729;SDS011;11027;51.030;13.812;2022-07-25T06:55:33;15.52;;;11.20;;
21729;SDS011;11027;51.030;13.812;2022-07-25T06:57:58;13.98;;;10.60;;
21729;SDS011;11027;51.030;13.812;2022-07-25T07:00:26;21.33;;;10.55;;
21729;SDS011;11027;51.030;13.812;2022-07-25T07:02:53;15.52;;;9.23;;
21729;SDS011;11027;51.030;13.812;2022-07-25T07:05:20;14.30;;;9.18;;
21729;SDS011;11027;51.030;13.812;2022-07-25T07:07:46;13.43;;;8.77;;
21729;SDS011;11027;51.030;13.812;2022-07-25T07:10:11;12.23;;;8.25;;
21729;SDS011;11027;51.030;13.812;2022-07-25T07:12:37;11.90;;;8.05;;
21729;SDS011;11027;51.030;13.812;2022-07-25T07:15:02;10.25;;;7.28;;
21729;SDS011;11027;51.030;13.812;2022-07-25T07:17:28;12.48;;;6.72;;
21729;SDS011;11027;51.030;13.812;2022-07-25T07:19:53;11.40;;;6.85;;
21729;SDS011;11027;51.030;13.812;2022-07-25T07:22:18;13.25;;;6.72;;
21729;SDS011;11027;51.030;13.812;2022-07-25T07:24:44;8.00;;;6.72;;
21729;SDS011;11027;51.030;13.812;2022-07-25T07:27:09;9.63;;;5.90;;
21729;SDS011;11027;51.030;13.812;2022-07-25T07:29:34;9.13;;;6.20;;
21729;SDS011;11027;51.030;13.812;2022-07-25T07:31:59;11.33;;;6.63;;
21729;SDS011;11027;51.030;13.812;2022-07-25T07:34:25;10.40;;;6.50;;
21729;SDS011;11027;51.030;13.812;2022-07-25T07:36:50;8.23;;;5.47;;
21729;SDS011;11027;51.030;13.812;2022-07-25T07:39:16;8.73;;;5.28;;
21729;SDS011;11027;51.030;13.812;2022-07-25T07:41:41;11.15;;;5.45;;
21729;SDS011;11027;51.030;13.812;2022-07-25T07:44:07;7.38;;;4.55;;
21729;SDS011;11027;51.030;13.812;2022-07-25T07:46:33;6.13;;;4.97;;
21729;SDS011;11027;51.030;13.812;2022-07-25T07:48:58;7.97;;;3.97;;
21729;SDS011;11027;51.030;13.812;2022-07-25T07:51:23;6.50;;;3.80;;
21729;SDS011;11027;51.030;13.812;2022-07-25T07:53:49;4.28;;;3.67;;
21729;SDS011;11027;51.030;13.812;2022-07-25T07:56:32;5.50;;;3.72;;
21729;SDS011;11027;51.030;13.812;2022-07-25T07:58:58;8.75;;;3.90;;
21729;SDS011;11027;51.030;13.812;2022-07-25T08:01:23;8.73;;;3.63;;
21729;SDS011;11027;51.030;13.812;2022-07-25T08:03:49;7.55;;;3.70;;
21729;SDS011;11027;51.030;13.812;2022-07-25T08:06:14;3.90;;;3.50;;
21729;SDS011;11027;51.030;13.812;2022-07-25T08:08:40;5.43;;;3.58;;
21729;SDS011;11027;51.030;13.812;2022-07-25T08:11:05;7.20;;;3.47;;
21729;SDS011;11027;51.030;13.812;2022-07-25T08:13:30;6.82;;;4.00;;
21729;SDS011;11027;51.030;13.812;2022-07-25T08:15:58;4.63;;;3.88;;
21729;SDS011;11027;51.030;13.812;2022-07-25T08:18:25;6.55;;;3.78;;
21729;SDS011;11027;51.030;13.812;2022-07-25T08:20:51;4.65;;;4.03;;
21729;SDS011;11027;51.030;13.812;2022-07-25T08:23:16;4.43;;;4.00;;
21729;SDS011;11027;51.030;13.812;2022-07-25T08:25:43;4.53;;;3.60;;
21729;SDS011;11027;51.030;13.812;2022-07-25T08:28:08;4.47;;;3.50;;
21729;SDS011;11027;51.030;13.812;2022-07-25T08:30:34;6.30;;;3.78;;
21729;SDS011;11027;51.030;13.812;2022-07-25T08:33:02;4.32;;;3.70;;
21729;SDS011;11027;51.030;13.812;2022-07-25T08:35:30;6.00;;;3.63;;
21729;SDS011;11027;51.030;13.812;2022-07-25T08:37:56;6.10;;;3.85;;
21729;SDS011;11027;51.030;13.812;2022-07-25T08:40:23;6.47;;;3.83;;
21729;SDS011;11027;51.030;13.812;2022-07-25T08:42:50;8.02;;;3.92;;
21729;SDS011;11027;51.030;13.812;2022-07-25T08:45:17;5.88;;;3.75;;
21729;SDS011;11027;51.030;13.812;2022-07-25T08:47:44;7.65;;;3.80;;
21729;SDS011;11027;51.030;13.812;2022-07-25T08:50:11;7.07;;;3.70;;
21729;SDS011;11027;51.030;13.812;2022-07-25T08:52:38;5.07;;;3.90;;
21729;SDS011;11027;51.030;13.812;2022-07-25T08:55:08;5.95;;;3.72;;
21729;SDS011;11027;51.030;13.812;2022-07-25T08:57:35;4.77;;;3.70;;
21729;SDS011;11027;51.030;13.812;2022-07-25T09:00:05;5.85;;;3.90;;
21729;SDS011;11027;51.030;13.812;2022-07-25T09:02:31;9.77;;;4.32;;
21729;SDS011;11027;51.030;13.812;2022-07-25T09:04:57;5.22;;;4.38;;
21729;SDS011;11027;51.030;13.812;2022-07-25T09:07:33;7.53;;;3.97;;
21729;SDS011;11027;51.030;13.812;2022-07-25T09:10:13;4.40;;;4.07;;
21729;SDS011;11027;51.030;13.812;2022-07-25T09:12:41;8.95;;;4.20;;
21729;SDS011;11027;51.030;13.812;2022-07-25T09:15:21;4.05;;;3.65;;
21729;SDS011;11027;51.030;13.812;2022-07-25T09:17:51;5.30;;;4.00;;
21729;SDS011;11027;51.030;13.812;2022-07-25T09:20:17;5.55;;;3.92;;
21729;SDS011;11027;51.030;13.812;2022-07-25T09:22:43;8.57;;;4.43;;
21729;SDS011;11027;51.030;13.812;2022-07-25T09:30:40;6.95;;;4.10;;
21729;SDS011;11027;51.030;13.812;2022-07-25T09:33:18;6.70;;;4.68;;
21729;SDS011;11027;51.030;13.812;2022-07-25T09:35:44;5.22;;;4.28;;
21729;SDS011;11027;51.030;13.812;2022-07-25T09:38:13;7.30;;;4.10;;
21729;SDS011;11027;51.030;13.812;2022-07-25T09:40:40;6.85;;;4.30;;
21729;SDS011;11027;51.030;13.812;2022-07-25T09:43:06;5.88;;;4.20;;
21729;SDS011;11027;51.030;13.812;2022-07-25T09:45:31;5.60;;;4.10;;
21729;SDS011;11027;51.030;13.812;2022-07-25T09:48:01;6.05;;;4.15;;
21729;SDS011;11027;51.030;13.812;2022-07-25T09:50:29;7.15;;;3.97;;
21729;SDS011;11027;51.030;13.812;2022-07-25T09:52:57;6.35;;;3.83;;
21729;SDS011;11027;51.030;13.812;2022-07-25T09:55:25;6.57;;;4.18;;
21729;SDS011;11027;51.030;13.812;2022-07-25T09:57:51;5.40;;;4.20;;
21729;SDS011;11027;51.030;13.812;2022-07-25T10:00:18;5.30;;;4.13;;
21729;SDS011;11027;51.030;13.812;2022-07-25T10:02:48;5.63;;;4.03;;
21729;SDS011;11027;51.030;13.812;2022-07-25T10:07:54;6.10;;;4.20;;
21729;SDS011;11027;51.030;13.812;2022-07-25T10:10:22;6.10;;;3.95;;
21729;SDS011;11027;51.030;13.812;2022-07-25T10:12:59;5.68;;;4.32;;
21729;SDS011;11027;51.030;13.812;2022-07-25T10:15:38;4.95;;;4.05;;
21729;SDS011;11027;51.030;13.812;2022-07-25T10:18:05;6.45;;;4.22;;
21729;SDS011;11027;51.030;13.812;2022-07-25T10:20:32;10.25;;;4.22;;
21729;SDS011;11027;51.030;13.812;2022-07-25T10:22:58;4.38;;;3.58;;
21729;SDS011;11027;51.030;13.812;2022-07-25T10:25:23;10.23;;;4.10;;
21729;SDS011;11027;51.030;13.812;2022-07-25T10:27:50;5.97;;;4.20;;
21729;SDS011;11027;51.030;13.812;2022-07-25T10:30:24;9.73;;;4.03;;
21729;SDS011;11027;51.030;13.812;2022-07-25T10:32:58;7.43;;;3.90;;
21729;SDS011;11027;51.030;13.812;2022-07-25T10:35:35;6.95;;;3.85;;
21729;SDS011;11027;51.030;13.812;2022-07-25T10:38:02;7.85;;;4.22;;
21729;SDS011;11027;51.030;13.812;2022-07-25T10:40:32;6.15;;;3.92;;
21729;SDS011;11027;51.030;13.812;2022-07-25T10:43:07;7.60;;;4.22;;
21729;SDS011;11027;51.030;13.812;2022-07-25T10:45:36;6.57;;;3.55;;
21729;SDS011;11027;51.030;13.812;2022-07-25T10:48:19;8.80;;;4.30;;
21729;SDS011;11027;51.030;13.812;2022-07-25T10:50:47;6.22;;;4.00;;
21729;SDS011;11027;51.030;13.812;2022-07-25T10:53:13;5.68;;;3.40;;
21729;SDS011;11027;51.030;13.812;2022-07-25T10:55:38;6.77;;;3.90;;
21729;SDS011;11027;51.030;13.812;2022-07-25T10:58:04;5.07;;;3.80;;
21729;SDS011;11027;51.030;13.812;2022-07-25T11:00:32;5.20;;;3.72;;
21729;SDS011;11027;51.030;13.812;2022-07-25T11:02:59;4.80;;;3.70;;
21729;SDS011;11027;51.030;13.812;2022-07-25T11:05:26;6.35;;;3.97;;
21729;SDS011;11027;51.030;13.812;2022-07-25T11:07:53;8.38;;;3.78;;
21729;SDS011;11027;51.030;13.812;2022-07-25T11:10:26;6.53;;;3.92;;
21729;SDS011;11027;51.030;13.812;2022-07-25T11:12:52;5.13;;;3.60;;
21729;SDS011;11027;51.030;13.812;2022-07-25T11:15:21;6.53;;;3.67;;
21729;SDS011;11027;51.030;13.812;2022-07-25T11:17:50;4.05;;;3.65;;
21729;SDS011;11027;51.030;13.812;2022-07-25T11:20:17;6.05;;;3.83;;
21729;SDS011;11027;51.030;13.812;2022-07-25T11:22:52;6.35;;;3.63;;
21729;SDS011;11027;51.030;13.812;2022-07-25T11:25:19;5.05;;;3.47;;
21729;SDS011;11027;51.030;13.812;2022-07-25T11:27:54;5.65;;;3.47;;
21729;SDS011;11027;51.030;13.812;2022-07-25T11:30:22;5.07;;;4.00;;
21729;SDS011;11027;51.030;13.812;2022-07-25T11:32:48;5.57;;;3.83;;
21729;SDS011;11027;51.030;13.812;2022-07-25T11:35:25;8.93;;;4.07;;
21729;SDS011;11027;51.030;13.812;2022-07-25T11:37:55;5.57;;;3.60;;
21729;SDS011;11027;51.030;13.812;2022-07-25T11:40:21;5.90;;;3.67;;
21729;SDS011;11027;51.030;13.812;2022-07-25T11:42:48;5.63;;;3.80;;
21729;SDS011;11027;51.030;13.812;2022-07-25T11:45:23;4.50;;;3.80;;
21729;SDS011;11027;51.030;13.812;2022-07-25T11:50:33;8.55;;;4.07;;
21729;SDS011;11027;51.030;13.812;2022-07-25T11:53:01;8.07;;;3.90;;
21729;SDS011;11027;51.030;13.812;2022-07-25T11:55:30;9.93;;;3.63;;
21729;SDS011;11027;51.030;13.812;2022-07-25T11:57:58;6.22;;;3.72;;
21729;SDS011;11027;51.030;13.812;2022-07-25T12:00:25;9.65;;;3.60;;
21729;SDS011;11027;51.030;13.812;2022-07-25T12:02:51;4.50;;;3.45;;
21729;SDS011;11027;51.030;13.812;2022-07-25T12:05:17;4.32;;;3.20;;
21729;SDS011;11027;51.030;13.812;2022-07-25T12:10:15;5.95;;;3.78;;
21729;SDS011;11027;51.030;13.812;2022-07-25T12:12:48;5.47;;;3.10;;
21729;SDS011;11027;51.030;13.812;2022-07-25T12:15:16;4.60;;;3.50;;
21729;SDS011;11027;51.030;13.812;2022-07-25T12:17:48;5.72;;;3.42;;
21729;SDS011;11027;51.030;13.812;2022-07-25T12:20:16;6.30;;;3.40;;
21729;SDS011;11027;51.030;13.812;2022-07-25T12:22:43;6.97;;;3.42;;
21729;SDS011;11027;51.030;13.812;2022-07-25T12:25:10;4.82;;;3.53;;
21729;SDS011;11027;51.030;13.812;2022-07-25T12:27:36;5.60;;;3.45;;
21729;SDS011;11027;51.030;13.812;2022-07-25T12:30:02;4.00;;;3.55;;
21729;SDS011;11027;51.030;13.812;2022-07-25T12:32:28;7.97;;;3.33;;
21729;SDS011;11027;51.030;13.812;2022-07-25T12:34:53;6.70;;;3.40;;
21729;SDS011;11027;51.030;13.812;2022-07-25T12:37:18;5.03;;;3.60;;
21729;SDS011;11027;51.030;13.812;2022-07-25T12:39:45;4.80;;;3.28;;
21729;SDS011;11027;51.030;13.812;2022-07-25T12:42:10;4.82;;;3.35;;
21729;SDS011;11027;51.030;13.812;2022-07-25T12:44:36;7.93;;;3.30;;
21729;SDS011;11027;51.030;13.812;2022-07-25T12:47:01;4.50;;;3.00;;
21729;SDS011;11027;51.030;13.812;2022-07-25T12:49:27;6.90;;;3.15;;
21729;SDS011;11027;51.030;13.812;2022-07-25T12:51:53;5.15;;;3.58;;
21729;SDS011;11027;51.030;13.812;2022-07-25T12:54:18;6.15;;;3.22;;
21729;SDS011;11027;51.030;13.812;2022-07-25T12:56:43;10.70;;;3.38;;
21729;SDS011;11027;51.030;13.812;2022-07-25T12:59:09;4.72;;;3.65;;
21729;SDS011;11027;51.030;13.812;2022-07-25T13:01:34;6.23;;;3.30;;
21729;SDS011;11027;51.030;13.812;2022-07-25T13:03:59;6.93;;;3.60;;
21729;SDS011;11027;51.030;13.812;2022-07-25T13:06:24;3.97;;;3.27;;
21729;SDS011;11027;51.030;13.812;2022-07-25T13:08:50;6.43;;;3.05;;
21729;SDS011;11027;51.030;13.812;2022-07-25T13:11:15;5.45;;;3.22;;
21729;SDS011;11027;51.030;13.812;2022-07-25T13:13:40;4.80;;;3.03;;
21729;SDS011;11027;51.030;13.812;2022-07-25T13:16:05;4.40;;;3.10;;
21729;SDS011;11027;51.030;13.812;2022-07-25T13:18:31;8.80;;;2.95;;
21729;SDS011;11027;51.030;13.812;2022-07-25T13:20:56;5.80;;;3.20;;
21729;SDS011;11027;51.030;13.812;2022-07-25T13:23:22;6.80;;;3.33;;
21729;SDS011;11027;51.030;13.812;2022-07-25T13:25:47;4.77;;;3.50;;
21729;SDS011;11027;51.030;13.812;2022-07-25T13:28:12;5.10;;;3.10;;
21729;SDS011;11027;51.030;13.812;2022-07-25T13:30:37;7.70;;;3.33;;
21729;SDS011;11027;51.030;13.812;2022-07-25T13:33:03;9.67;;;3.50;;
21729;SDS011;11027;51.030;13.812;2022-07-25T13:35:28;7.43;;;3.23;;
21729;SDS011;11027;51.030;13.812;2022-07-25T13:37:53;6.30;;;3.57;;
21729;SDS011;11027;51.030;13.812;2022-07-25T13:40:18;3.57;;;3.27;;
21729;SDS011;11027;51.030;13.812;2022-07-25T13:42:44;4.85;;;3.90;;
21729;SDS011;11027;51.030;13.812;2022-07-25T13:45:09;7.83;;;3.40;;
21729;SDS011;11027;51.030;13.812;2022-07-25T13:47:34;4.47;;;3.40;;
21729;SDS011;11027;51.030;13.812;2022-07-25T13:50:00;5.53;;;3.67;;
21729;SDS011;11027;51.030;13.812;2022-07-25T13:52:25;6.03;;;3.50;;
21729;SDS011;11027;51.030;13.812;2022-07-25T13:54:51;5.78;;;3.15;;
21729;SDS011;11027;51.030;13.812;2022-07-25T13:57:16;6.23;;;3.20;;
21729;SDS011;11027;51.030;13.812;2022-07-25T13:59:41;6.10;;;3.28;;
21729;SDS011;11027;51.030;13.812;2022-07-25T14:02:07;6.20;;;3.40;;
21729;SDS011;11027;51.030;13.812;2022-07-25T14:04:32;3.17;;;2.83;;
21729;SDS011;11027;51.030;13.812;2022-07-25T14:06:58;3.83;;;2.92;;
21729;SDS011;11027;51.030;13.812;2022-07-25T14:09:24;7.45;;;3.33;;
21729;SDS011;11027;51.030;13.812;2022-07-25T14:11:49;6.65;;;3.35;;
21729;SDS011;11027;51.030;13.812;2022-07-25T14:14:15;8.70;;;3.65;;
21729;SDS011;11027;51.030;13.812;2022-07-25T14:16:40;8.40;;;3.13;;
21729;SDS011;11027;51.030;13.812;2022-07-25T14:19:06;6.60;;;3.20;;
21729;SDS011;11027;51.030;13.812;2022-07-25T14:21:32;3.85;;;2.88;;
21729;SDS011;11027;51.030;13.812;2022-07-25T14:23:57;8.83;;;3.17;;
21729;SDS011;11027;51.030;13.812;2022-07-25T14:26:23;5.32;;;2.97;;
21729;SDS011;11027;51.030;13.812;2022-07-25T14:28:49;4.32;;;3.20;;